Time;durP1;ratioP1;P1;durP2;ratioP2;P2;SDS_P1;SDS_P2;PMS_P1;PMS_P2;Temp;Humidity;BMP_temperature;BMP_pressure;BME280_temperature;BME280_humidity;BME280_pressure;Samples;Min_cycle;Max_cycle;Signal;HPM_P1;HPM_P2
2022/10/04 09:40:29;;;;;;;12.50;4.30;;;17.70;73.50;;;;;;4594917;28;20515;-48
2022/10/04 09:43:23;;;;;;;8.02;4.60;;;17.50;72.30;;;;;;5071759;28;20066;-50
2022/10/04 09:46:01;;;;;;;10.70;4.40;;;17.20;72.30;;;;;;5097447;28;20086;-47
2022/10/04 09:48:36;;;;;;;10.75;5.00;;;17.00;71.70;;;;;;5092816;28;20103;-47
2022/10/04 09:51:21;;;;;;;13.85;3.90;;;16.70;73.30;;;;;;5073593;28;20035;-48
2022/10/04 09:57:40;;;;;;;9.80;3.83;;;16.90;76.30;;;;;;5090108;28;20143;-47
2022/10/04 10:00:21;;;;;;;13.38;5.30;;;16.90;75.40;;;;;;5088969;28;20020;-46
2022/10/04 10:03:19;;;;;;;8.23;3.47;;;16.60;74.80;;;;;;5082988;28;20591;-47
2022/10/04 10:06:06;;;;;;;13.30;4.35;;;16.50;75.30;;;;;;5081723;28;20111;-48
2022/10/04 10:08:34;;;;;;;10.57;5.45;;;16.40;75.40;;;;;;5087701;28;20040;-45
2022/10/04 10:14:26;;;;;;;10.55;4.32;;;16.90;75.50;;;;;;5078555;28;20448;-50
2022/10/04 10:17:35;;;;;;;9.75;3.50;;;17.10;75.30;;;;;;5082959;28;20084;-48
2022/10/04 10:20:26;;;;;;;8.07;3.85;;;17.30;72.40;;;;;;5083397;28;20043;-47
2022/10/04 10:23:30;;;;;;;9.82;3.88;;;17.50;72.20;;;;;;5086873;28;20036;-47
2022/10/04 10:26:24;;;;;;;7.95;3.03;;;17.50;71.90;;;;;;5088398;28;20077;-46
2022/10/04 10:29:23;;;;;;;11.18;3.95;;;17.60;72.90;;;;;;5089579;28;20029;-45
2022/10/04 10:32:35;;;;;;;8.57;3.20;;;17.70;71.50;;;;;;5090841;28;20385;-47
2022/10/04 10:35:19;;;;;;;7.28;2.45;;;17.80;72.50;;;;;;5045102;28;20045;-46
2022/10/04 10:37:48;;;;;;;9.63;2.72;;;17.80;70.70;;;;;;5039971;28;20041;-47
2022/10/04 10:40:42;;;;;;;9.15;3.63;;;17.70;71.90;;;;;;5046238;28;20069;-46
2022/10/04 10:43:45;;;;;;;6.43;3.15;;;17.80;71.40;;;;;;5045044;28;20116;-46
2022/10/04 10:46:26;;;;;;;9.70;3.17;;;17.90;71.30;;;;;;5039615;28;20033;-48
2022/10/04 10:49:11;;;;;;;6.25;2.38;;;17.80;71.40;;;;;;5038352;28;20099;-47
2022/10/04 10:52:14;;;;;;;9.32;2.50;;;17.80;71.30;;;;;;5037231;28;20025;-48
2022/10/04 10:55:10;;;;;;;7.30;2.58;;;17.70;70.50;;;;;;5036966;28;20331;-49
2022/10/04 10:58:04;;;;;;;8.77;2.80;;;17.50;70.60;;;;;;5041716;28;20025;-49
2022/10/04 11:01:11;;;;;;;8.00;2.92;;;17.50;70.00;;;;;;5006874;28;20064;-45
2022/10/04 11:04:13;;;;;;;8.10;2.78;;;17.60;71.70;;;;;;5037737;28;20440;-46
2022/10/04 11:06:59;;;;;;;6.90;2.47;;;17.90;73.30;;;;;;5038509;28;20044;-51
2022/10/04 11:09:30;;;;;;;8.32;2.95;;;17.90;72.10;;;;;;5036789;28;20760;-46
2022/10/04 11:12:23;;;;;;;7.88;2.65;;;17.90;69.70;;;;;;5038175;28;20036;-49
2022/10/04 11:15:27;;;;;;;5.60;2.28;;;17.90;69.30;;;;;;5042636;28;20021;-46
2022/10/04 11:18:38;;;;;;;5.85;2.03;;;17.90;69.30;;;;;;5045329;28;20029;-47
2022/10/04 11:21:24;;;;;;;5.75;2.20;;;18.00;69.10;;;;;;5048219;28;20516;-46
2022/10/04 11:24:33;;;;;;;8.13;2.50;;;17.90;68.40;;;;;;5047204;28;20029;-49
2022/10/04 11:27:23;;;;;;;7.15;2.25;;;17.80;69.00;;;;;;5027047;28;20086;-47
2022/10/04 11:30:23;;;;;;;5.80;2.45;;;17.80;69.40;;;;;;5051547;28;20033;-47
2022/10/04 11:33:19;;;;;;;6.85;2.47;;;18.10;70.60;;;;;;5052240;28;20037;-51
2022/10/04 11:36:22;;;;;;;7.40;2.67;;;18.00;69.40;;;;;;5028572;28;20092;-47
2022/10/04 11:39:00;;;;;;;6.45;2.83;;;17.90;70.00;;;;;;5030989;28;20320;-46
2022/10/04 11:41:54;;;;;;;6.32;2.35;;;17.90;69.60;;;;;;5030496;28;20034;-47
2022/10/04 11:44:55;;;;;;;6.65;2.22;;;17.80;69.40;;;;;;5002597;28;20033;-46
2022/10/04 11:47:44;;;;;;;4.15;1.92;;;17.90;69.10;;;;;;5026527;28;20450;-46
2022/10/04 11:50:28;;;;;;;7.63;2.20;;;17.90;70.00;;;;;;5026928;28;20645;-46
2022/10/04 11:53:26;;;;;;;10.55;3.15;;;17.80;68.70;;;;;;5023535;28;20065;-50
2022/10/04 11:55:57;;;;;;;8.55;2.30;;;17.60;69.80;;;;;;5030699;28;20124;-48
2022/10/04 12:02:39;;;;;;;10.55;2.40;;;17.70;71.80;;;;;;5020742;28;20048;-47
2022/10/04 12:05:40;;;;;;;7.45;2.90;;;17.80;69.40;;;;;;4992635;28;20042;-49
2022/10/04 12:08:22;;;;;;;8.93;2.83;;;17.80;69.40;;;;;;5011098;28;20313;-46
2022/10/04 12:12:35;;;;;;;7.80;3.08;;;17.90;71.00;;;;;;5029429;28;20041;-47
2022/10/04 12:14:50;;;;;;;7.63;2.20;;;17.90;70.00;;;;;;5026153;28;20037;-46
2022/10/04 12:17:45;;;;;;;6.57;3.30;;;17.80;69.80;;;;;;5025826;28;20121;-46
2022/10/04 12:20:50;;;;;;;8.15;2.53;;;17.60;69.70;;;;;;5024253;28;20716;-46
2022/10/04 12:23:37;;;;;;;8.02;2.60;;;17.60;70.00;;;;;;5028981;28;20037;-48
2022/10/04 12:26:39;;;;;;;7.30;3.47;;;17.40;69.30;;;;;;5040139;28;20455;-47
2022/10/04 12:29:29;;;;;;;7.57;3.20;;;17.40;70.10;;;;;;5050476;28;20032;-48
2022/10/04 12:32:03;;;;;;;8.70;3.70;;;17.40;69.90;;;;;;5038953;28;20038;-45
2022/10/04 12:35:01;;;;;;;6.65;2.75;;;17.40;71.40;;;;;;5025962;28;20053;-46
2022/10/04 12:37:50;;;;;;;6.97;3.28;;;17.40;70.70;;;;;;5007325;28;20040;-48
2022/10/04 12:40:28;;;;;;;8.98;3.95;;;17.40;71.10;;;;;;5029440;28;20048;-49
2022/10/04 12:43:18;;;;;;;6.20;3.13;;;17.30;70.70;;;;;;5031695;28;20025;-46
2022/10/04 12:46:08;;;;;;;8.65;3.25;;;17.30;71.90;;;;;;5032258;28;20447;-46
2022/10/04 12:48:53;;;;;;;;;;;17.30;72.00;;;;;;5030613;28;20469;-47
2022/10/04 12:51:36;;;;;;;9.27;3.28;;;17.10;72.30;;;;;;5032188;28;19916;-46
2022/10/04 12:54:14;;;;;;;8.10;3.05;;;17.20;72.90;;;;;;5032477;28;20025;-47
2022/10/04 12:57:11;;;;;;;6.22;2.67;;;17.20;71.20;;;;;;5030455;28;20030;-47
2022/10/04 12:59:59;;;;;;;7.07;3.00;;;17.20;71.90;;;;;;5014907;28;20025;-50
2022/10/04 13:02:57;;;;;;;6.95;2.78;;;17.30;71.60;;;;;;5030143;28;20084;-47
2022/10/04 13:05:47;;;;;;;6.07;2.22;;;17.30;71.20;;;;;;5032131;28;20184;-49
2022/10/04 13:08:28;;;;;;;7.88;2.90;;;17.30;71.50;;;;;;5014318;28;20037;-46
2022/10/04 13:11:30;;;;;;;9.88;3.28;;;17.30;70.70;;;;;;5031324;28;20107;-45
2022/10/04 13:14:24;;;;;;;8.13;2.90;;;17.20;70.60;;;;;;5032027;28;20095;-48
2022/10/04 13:17:24;;;;;;;10.27;3.10;;;17.20;70.20;;;;;;5029918;28;20076;-47
2022/10/04 13:20:16;;;;;;;7.72;2.90;;;17.20;70.40;;;;;;5012731;28;20416;-46
2022/10/04 13:22:54;;;;;;;7.15;3.17;;;17.20;69.90;;;;;;5012374;28;20022;-47
2022/10/04 13:25:38;;;;;;;7.95;3.90;;;17.20;70.20;;;;;;5021676;28;20040;-46
2022/10/04 13:28:29;;;;;;;11.70;3.03;;;17.20;69.30;;;;;;5031164;28;20033;-51
2022/10/04 13:31:08;;;;;;;7.95;3.78;;;17.20;68.90;;;;;;5032256;28;20064;-51
2022/10/04 13:33:40;;;;;;;5.47;2.50;;;17.30;69.40;;;;;;5007675;28;20096;-47
2022/10/04 13:36:32;;;;;;;7.70;3.10;;;17.30;69.50;;;;;;5031253;28;20514;-48
2022/10/04 13:39:32;;;;;;;6.13;2.40;;;17.30;68.50;;;;;;5049673;28;20086;-48
2022/10/04 13:42:44;;;;;;;8.68;3.47;;;17.30;68.80;;;;;;5009321;28;20117;-48
2022/10/04 13:45:48;;;;;;;6.57;2.95;;;17.40;69.80;;;;;;4997585;28;20046;-48
2022/10/04 13:49:03;;;;;;;6.10;2.45;;;17.40;69.60;;;;;;5028346;28;20060;-48
2022/10/04 13:58:59;;;;;;;7.43;2.58;;;17.10;69.10;;;;;;5042522;28;20452;-48
2022/10/04 14:02:02;;;;;;;9.32;2.83;;;17.20;69.20;;;;;;5002188;28;20048;-46
2022/10/04 14:05:06;;;;;;;8.55;3.35;;;17.20;69.60;;;;;;5047058;28;20048;-45
2022/10/04 14:07:53;;;;;;;6.20;2.70;;;17.30;69.10;;;;;;5052999;28;20021;-47
2022/10/04 14:10:49;;;;;;;6.07;2.70;;;17.30;69.40;;;;;;5048142;28;20036;-48
2022/10/04 14:13:54;;;;;;;8.43;2.80;;;17.30;69.70;;;;;;5055040;28;20021;-48
2022/10/04 14:16:54;;;;;;;4.70;2.22;;;17.40;68.90;;;;;;5008923;28;20037;-47
2022/10/04 14:19:58;;;;;;;10.20;3.20;;;17.40;67.60;;;;;;5046723;28;20782;-46
2022/10/04 14:22:54;;;;;;;7.97;2.70;;;17.30;67.70;;;;;;5035196;28;20334;-47
2022/10/04 14:25:57;;;;;;;6.45;2.80;;;17.20;68.30;;;;;;5028062;28;20104;-46
2022/10/04 14:28:36;;;;;;;7.25;2.60;;;17.20;69.30;;;;;;5047175;28;20037;-46
2022/10/04 14:31:21;;;;;;;5.45;3.05;;;17.20;68.90;;;;;;4996847;28;20405;-46
2022/10/04 14:34:24;;;;;;;6.95;2.33;;;17.10;69.20;;;;;;5037888;28;20410;-47
2022/10/04 14:37:03;;;;;;;7.43;2.33;;;17.20;69.60;;;;;;5016315;28;20034;-49
2022/10/04 14:39:46;;;;;;;6.78;2.80;;;17.00;69.00;;;;;;5040848;28;20630;-46
2022/10/04 14:42:24;;;;;;;4.93;2.65;;;17.10;68.20;;;;;;5035073;28;20029;-49
2022/10/04 14:45:23;;;;;;;5.22;2.67;;;17.10;67.70;;;;;;5034464;28;20033;-48
2022/10/04 14:48:30;;;;;;;9.75;3.63;;;17.10;68.40;;;;;;5030916;28;20040;-46
2022/10/04 14:51:19;;;;;;;6.75;3.28;;;17.10;68.00;;;;;;5038435;28;20043;-48
2022/10/04 14:54:10;;;;;;;6.72;3.22;;;17.10;67.60;;;;;;5024282;28;20026;-46
2022/10/04 14:57:09;;;;;;;8.45;2.92;;;17.10;68.20;;;;;;5031546;28;20037;-46
2022/10/04 15:00:12;;;;;;;;;;;17.10;67.70;;;;;;5055584;28;20025;-48
2022/10/04 15:03:12;;;;;;;6.90;3.08;;;17.10;67.70;;;;;;4956634;28;19910;-48
2022/10/04 15:06:02;;;;;;;;;;;17.00;68.20;;;;;;4958284;28;20027;-46
2022/10/04 15:08:51;;;;;;;4.43;1.95;;;17.00;68.10;;;;;;5020186;28;19916;-48
2022/10/04 15:11:34;;;;;;;4.80;2.63;;;17.00;68.30;;;;;;5029692;28;20056;-48
2022/10/04 15:14:19;;;;;;;7.43;3.15;;;17.00;69.10;;;;;;5008057;28;20152;-46
2022/10/04 15:16:57;;;;;;;6.82;2.85;;;16.90;69.60;;;;;;5030516;28;20466;-48
2022/10/04 15:19:29;;;;;;;5.68;2.78;;;16.90;69.50;;;;;;5033839;28;20056;-48
2022/10/04 15:22:19;;;;;;;9.07;2.70;;;16.80;69.80;;;;;;5038549;28;20114;-49
2022/10/04 15:24:49;;;;;;;11.95;2.90;;;16.70;70.40;;;;;;5028470;28;20081;-48
2022/10/04 15:27:52;;;;;;;6.55;2.72;;;16.60;70.90;;;;;;5019108;28;20021;-48
2022/10/04 15:30:50;;;;;;;5.07;2.55;;;16.50;71.00;;;;;;5030207;28;20038;-50
2022/10/04 15:33:19;;;;;;;10.77;3.55;;;16.40;71.30;;;;;;5037230;28;20041;-47
2022/10/04 15:36:13;;;;;;;8.50;3.27;;;16.40;72.10;;;;;;5031228;28;20033;-48
2022/10/04 15:38:55;;;;;;;6.13;3.00;;;16.40;72.50;;;;;;5022340;28;20296;-47
2022/10/04 15:42:11;;;;;;;11.85;5.75;;;16.30;73.20;;;;;;5028992;28;20030;-48
2022/10/04 15:45:18;;;;;;;10.23;5.28;;;16.30;73.20;;;;;;4996028;28;20064;-47
2022/10/04 15:48:35;;;;;;;7.65;3.35;;;16.20;72.60;;;;;;5023939;28;20111;-48
2022/10/04 15:51:20;;;;;;;10.02;3.70;;;16.20;72.60;;;;;;4968754;28;20031;-50
2022/10/04 15:54:03;;;;;;;5.78;2.75;;;16.10;72.90;;;;;;4972286;28;20058;-49
2022/10/04 15:56:40;;;;;;;7.22;2.95;;;16.10;72.60;;;;;;4972635;28;20042;-50
2022/10/04 16:00:02;;;;;;;10.27;3.30;;;16.10;72.50;;;;;;4955313;28;20038;-47
2022/10/04 16:02:54;;;;;;;7.53;4.18;;;16.00;72.70;;;;;;4914389;29;20457;-45
2022/10/04 16:05:36;;;;;;;6.03;3.08;;;16.00;73.40;;;;;;4907616;29;20079;-47
2022/10/04 16:08:35;;;;;;;7.22;3.30;;;15.90;73.60;;;;;;4908518;29;20040;-48
2022/10/04 16:11:21;;;;;;;;;;;15.80;73.70;;;;;;4905434;29;20127;-50
2022/10/04 16:14:26;;;;;;;8.48;2.72;;;15.70;74.00;;;;;;4913211;29;20393;-50
2022/10/04 16:17:20;;;;;;;7.80;2.90;;;15.60;74.20;;;;;;4912753;29;20378;-46
2022/10/04 16:19:59;;;;;;;7.38;3.20;;;15.60;75.00;;;;;;4914858;29;20148;-50
2022/10/04 16:22:33;;;;;;;5.88;3.03;;;15.40;75.00;;;;;;4942770;29;20222;-48
2022/10/04 16:25:17;;;;;;;7.82;3.10;;;15.40;75.30;;;;;;4952298;29;20047;-45
2022/10/04 16:27:55;;;;;;;8.05;3.85;;;15.30;75.40;;;;;;4933166;29;20050;-47
2022/10/04 16:30:45;;;;;;;7.55;3.72;;;15.20;75.40;;;;;;4930205;29;20428;-50
2022/10/04 16:33:24;;;;;;;9.07;3.88;;;15.20;75.90;;;;;;4968349;28;20045;-48
2022/10/04 16:36:17;;;;;;;7.38;3.33;;;15.10;75.80;;;;;;5051773;28;20044;-48
2022/10/04 16:41:39;;;;;;;5.75;3.58;;;14.90;76.50;;;;;;5041699;28;20056;-47
2022/10/04 16:44:27;;;;;;;7.10;3.63;;;14.90;76.70;;;;;;5031987;28;20032;-46
2022/10/04 16:46:59;;;;;;;7.63;3.72;;;14.90;76.90;;;;;;5028065;28;20040;-48
2022/10/04 16:49:48;;;;;;;9.38;3.83;;;14.80;76.70;;;;;;5045561;28;20462;-45
2022/10/04 16:52:22;;;;;;;10.95;3.65;;;14.70;77.10;;;;;;5037138;28;20026;-48
2022/10/04 16:55:25;;;;;;;7.28;3.30;;;14.60;77.20;;;;;;5035241;28;20104;-46
2022/10/04 16:58:29;;;;;;;7.13;3.83;;;14.50;77.50;;;;;;5042806;28;20024;-48
2022/10/04 17:01:32;;;;;;;7.25;3.20;;;14.50;77.60;;;;;;5035796;28;20446;-46
2022/10/04 17:04:35;;;;;;;7.60;3.63;;;14.40;77.70;;;;;;5037344;28;20044;-46
2022/10/04 17:07:12;;;;;;;9.93;4.05;;;14.40;77.80;;;;;;5037218;28;20390;-50
2022/10/04 17:09:56;;;;;;;10.13;4.90;;;14.40;78.10;;;;;;5024538;28;20030;-46
2022/10/04 17:12:45;;;;;;;8.80;4.35;;;14.30;78.50;;;;;;5031703;28;20036;-46
2022/10/04 17:15:42;;;;;;;7.28;3.83;;;14.20;78.90;;;;;;5024509;28;20021;-46
2022/10/04 17:18:33;;;;;;;8.75;3.78;;;14.20;79.00;;;;;;5041701;28;20025;-48
2022/10/04 17:21:09;;;;;;;8.40;3.85;;;14.10;79.40;;;;;;5038520;28;20024;-45
2022/10/04 17:24:27;;;;;;;9.32;4.78;;;14.10;79.40;;;;;;5038665;28;20063;-45
2022/10/04 17:27:24;;;;;;;8.63;5.85;;;14.00;79.60;;;;;;5008185;28;20059;-46
2022/10/04 17:30:17;;;;;;;7.30;5.00;;;14.00;79.80;;;;;;5047485;28;20125;-51
2022/10/04 17:32:52;;;;;;;9.60;5.18;;;13.90;80.10;;;;;;5044043;28;20104;-46
2022/10/04 17:35:43;;;;;;;8.48;4.40;;;13.90;80.20;;;;;;5041361;28;20048;-47
2022/10/04 17:38:18;;;;;;;12.40;5.13;;;13.90;80.10;;;;;;5042276;28;20044;-47
2022/10/04 17:41:15;;;;;;;9.55;5.80;;;13.90;80.30;;;;;;5043865;28;20032;-48
2022/10/04 17:44:20;;;;;;;10.07;6.13;;;13.90;80.30;;;;;;5044624;28;20021;-47
2022/10/04 17:47:18;;;;;;;8.57;5.53;;;13.80;80.20;;;;;;5024658;28;20021;-46
2022/10/04 17:55:53;;;;;;;10.73;6.10;;;13.90;79.30;;;;;;5041223;28;20040;-47
2022/10/04 17:58:29;;;;;;;10.77;6.35;;;13.90;79.10;;;;;;5045123;28;20025;-51
2022/10/04 18:01:06;;;;;;;13.55;6.35;;;14.00;78.90;;;;;;5045147;28;20021;-47
2022/10/04 18:04:10;;;;;;;16.88;6.35;;;14.00;78.60;;;;;;5050749;28;20021;-47
2022/10/04 18:06:57;;;;;;;11.27;6.32;;;14.00;78.50;;;;;;5033870;28;20091;-47
2022/10/04 18:09:44;;;;;;;10.63;5.55;;;14.00;78.30;;;;;;5050212;28;20036;-49
2022/10/04 18:12:23;;;;;;;10.05;5.35;;;14.00;78.50;;;;;;5034023;28;20060;-48
2022/10/04 18:15:06;;;;;;;15.07;7.15;;;14.00;78.80;;;;;;5045592;28;20112;-47
2022/10/04 18:17:52;;;;;;;11.85;6.28;;;14.00;78.40;;;;;;5051122;28;20009;-50
2022/10/04 18:20:46;;;;;;;10.18;6.30;;;14.00;78.90;;;;;;5049866;28;20031;-46
2022/10/04 18:23:27;;;;;;;10.43;6.40;;;14.00;79.00;;;;;;5033448;28;20021;-46
2022/10/04 18:25:58;;;;;;;9.20;6.22;;;14.00;79.00;;;;;;5043316;28;20026;-48
2022/10/04 18:28:33;;;;;;;9.70;5.55;;;14.00;79.20;;;;;;5045415;28;20445;-46
2022/10/04 18:31:34;;;;;;;11.73;6.70;;;14.00;79.10;;;;;;5047471;28;20021;-47
2022/10/04 18:34:15;;;;;;;11.48;7.22;;;14.00;79.20;;;;;;5039785;28;20060;-48
2022/10/04 18:36:55;;;;;;;11.07;6.32;;;14.00;79.30;;;;;;5052574;28;20405;-45
2022/10/04 18:39:25;;;;;;;13.70;8.18;;;14.00;79.50;;;;;;5051164;28;20104;-45
2022/10/04 18:42:17;;;;;;;12.93;6.13;;;14.10;79.70;;;;;;5043655;28;20021;-47
2022/10/04 18:44:58;;;;;;;13.85;6.97;;;14.10;79.90;;;;;;5048174;28;20032;-46
2022/10/04 18:47:36;;;;;;;9.57;6.43;;;14.10;79.70;;;;;;5049820;28;20430;-48
2022/10/04 18:50:38;;;;;;;12.98;6.57;;;14.10;79.30;;;;;;5051195;28;20036;-47
2022/10/04 18:53:42;;;;;;;8.98;6.03;;;14.10;79.60;;;;;;5043570;28;20040;-48
2022/10/04 18:56:11;;;;;;;10.88;6.55;;;14.20;79.30;;;;;;5039923;28;20033;-47
2022/10/04 19:02:02;;;;;;;;;;;14.30;78.80;;;;;;5045676;28;20044;-46
2022/10/04 19:04:47;;;;;;;13.93;7.18;;;14.30;78.90;;;;;;5051873;28;19924;-47
2022/10/04 19:07:37;;;;;;;12.13;6.35;;;14.30;78.70;;;;;;5043100;28;20029;-50
2022/10/04 19:10:19;;;;;;;12.15;6.70;;;14.40;78.80;;;;;;5034905;28;20372;-47
2022/10/04 19:13:22;;;;;;;13.18;7.25;;;14.40;78.90;;;;;;5045229;28;20079;-45
2022/10/04 19:16:27;;;;;;;20.95;7.50;;;14.40;78.80;;;;;;5049888;28;20445;-48
2022/10/04 19:19:04;;;;;;;14.18;7.03;;;14.40;78.70;;;;;;4991620;28;20098;-45
2022/10/04 19:21:42;;;;;;;9.07;6.50;;;14.40;78.80;;;;;;5049864;28;20029;-50
2022/10/04 19:24:13;;;;;;;14.35;7.00;;;14.40;78.80;;;;;;5050361;28;20029;-46
2022/10/04 19:26:46;;;;;;;11.55;7.43;;;14.40;79.20;;;;;;5052188;28;20414;-46
2022/10/04 19:29:27;;;;;;;14.52;7.00;;;14.30;79.30;;;;;;5030700;28;20454;-47
2022/10/04 19:32:30;;;;;;;10.07;6.28;;;14.30;79.40;;;;;;5040252;28;20035;-46
2022/10/04 19:35:17;;;;;;;9.63;6.68;;;14.30;79.60;;;;;;5053257;28;20049;-47
2022/10/04 19:38:05;;;;;;;13.73;7.18;;;14.30;79.80;;;;;;5052220;28;20071;-45
2022/10/04 19:41:08;;;;;;;10.32;7.07;;;14.30;79.70;;;;;;5049819;28;20545;-49
2022/10/04 19:44:01;;;;;;;11.30;7.38;;;14.30;79.80;;;;;;5042943;28;20052;-47
2022/10/04 19:46:45;;;;;;;12.27;7.15;;;14.30;79.70;;;;;;5051267;28;20107;-46
2022/10/04 19:49:27;;;;;;;11.38;6.97;;;14.30;79.50;;;;;;5049608;28;20033;-47
2022/10/04 19:52:11;;;;;;;11.43;7.07;;;14.30;79.60;;;;;;5034744;28;20495;-47
2022/10/04 19:54:39;;;;;;;14.18;7.20;;;14.30;79.60;;;;;;5033950;28;20033;-48
2022/10/04 19:57:11;;;;;;;12.52;8.32;;;14.30;79.40;;;;;;5050725;28;20040;-45
2022/10/04 19:59:47;;;;;;;11.75;7.55;;;14.20;79.50;;;;;;5016376;28;20044;-46
2022/10/04 20:02:17;;;;;;;12.38;7.18;;;14.20;79.70;;;;;;5049889;28;20119;-46
2022/10/04 20:04:47;;;;;;;13.90;8.18;;;14.20;79.70;;;;;;5051030;28;20485;-49
2022/10/04 20:07:23;;;;;;;12.13;6.78;;;14.10;79.80;;;;;;5051095;28;20838;-45
2022/10/04 20:10:14;;;;;;;11.57;7.82;;;14.10;80.00;;;;;;5048766;28;20017;-47
2022/10/04 20:13:12;;;;;;;11.82;7.38;;;14.10;80.00;;;;;;5049235;28;20013;-46
2022/10/04 20:15:45;;;;;;;11.68;7.50;;;14.00;80.20;;;;;;5051152;28;20052;-46
2022/10/04 20:18:32;;;;;;;17.80;7.38;;;14.00;80.50;;;;;;5044549;28;20531;-46
2022/10/04 20:20:58;;;;;;;15.45;8.82;;;14.00;80.60;;;;;;5032619;28;20033;-46
2022/10/04 20:23:46;;;;;;;13.40;7.60;;;14.00;80.80;;;;;;5032837;28;20029;-46
2022/10/04 20:26:51;;;;;;;13.45;7.68;;;14.00;80.80;;;;;;5049588;28;20071;-48
2022/10/04 20:29:35;;;;;;;9.20;6.88;;;14.00;80.60;;;;;;5052507;28;20025;-47
2022/10/04 20:32:06;;;;;;;9.45;6.65;;;14.10;80.60;;;;;;5052076;28;20028;-46
2022/10/04 20:34:40;;;;;;;10.38;7.00;;;14.10;80.70;;;;;;5052165;28;20037;-45
2022/10/04 20:37:08;;;;;;;12.25;7.03;;;14.20;80.70;;;;;;5051771;28;20124;-48
2022/10/04 20:39:45;;;;;;;10.75;7.13;;;14.10;80.90;;;;;;5053132;28;20453;-46
2022/10/04 20:42:33;;;;;;;12.02;6.75;;;14.20;80.90;;;;;;5052578;28;20616;-47
2022/10/04 20:45:10;;;;;;;13.88;7.38;;;14.20;80.90;;;;;;5051592;28;20037;-47
2022/10/04 20:47:56;;;;;;;11.05;7.57;;;14.20;80.70;;;;;;5052581;28;20029;-48
2022/10/04 20:50:40;;;;;;;15.35;7.07;;;14.20;80.70;;;;;;5051700;28;20354;-48
2022/10/04 20:53:27;;;;;;;13.32;7.30;;;14.20;80.80;;;;;;5053092;28;20035;-50
2022/10/04 20:56:29;;;;;;;10.60;7.18;;;14.20;80.70;;;;;;5051197;28;20117;-48
2022/10/04 20:59:00;;;;;;;11.95;7.50;;;14.20;80.80;;;;;;5051947;28;20082;-51
2022/10/04 21:02:03;;;;;;;9.45;6.60;;;14.20;80.60;;;;;;5032871;28;20424;-48
2022/10/04 21:07:07;;;;;;;11.85;6.70;;;14.30;80.50;;;;;;5048077;28;20174;-46
2022/10/04 21:09:36;;;;;;;11.02;6.85;;;14.30;80.50;;;;;;5032823;28;20021;-47
2022/10/04 21:12:03;;;;;;;14.77;7.20;;;14.30;80.40;;;;;;5052235;28;20032;-50
2022/10/04 21:14:34;;;;;;;10.43;6.78;;;14.30;80.20;;;;;;5055956;28;20024;-45
2022/10/04 21:17:27;;;;;;;11.23;6.63;;;14.30;80.20;;;;;;5055159;28;20506;-51
2022/10/04 21:19:54;;;;;;;10.80;7.78;;;14.30;80.50;;;;;;5052258;28;20069;-46
2022/10/04 21:22:25;;;;;;;10.05;7.43;;;14.30;80.50;;;;;;5055574;28;20044;-47
2022/10/04 21:25:00;;;;;;;22.05;7.55;;;14.30;80.40;;;;;;5056366;28;20466;-47
2022/10/04 21:27:33;;;;;;;11.05;7.28;;;14.30;80.40;;;;;;5036475;28;20048;-47
2022/10/04 21:30:03;;;;;;;10.77;7.15;;;14.40;80.50;;;;;;5054287;28;20017;-48
2022/10/04 21:32:38;;;;;;;12.38;8.05;;;14.40;80.50;;;;;;5056468;28;20021;-46
2022/10/04 21:35:07;;;;;;;8.77;6.32;;;14.40;80.30;;;;;;5050702;28;20103;-46
2022/10/04 21:37:34;;;;;;;9.98;6.93;;;14.40;80.10;;;;;;5019033;28;20060;-46
2022/10/04 21:40:01;;;;;;;12.35;7.72;;;14.40;80.40;;;;;;5020174;28;20043;-46
2022/10/04 21:42:28;;;;;;;10.48;6.80;;;14.40;80.40;;;;;;5056394;28;20029;-48
2022/10/04 21:44:55;;;;;;;12.10;7.25;;;14.40;80.20;;;;;;5055601;28;20361;-48
2022/10/04 21:47:22;;;;;;;11.75;7.20;;;14.40;80.30;;;;;;5054234;28;20033;-45
2022/10/04 21:49:49;;;;;;;11.95;7.57;;;14.40;80.40;;;;;;5055050;28;20350;-47
2022/10/04 21:52:19;;;;;;;12.70;6.88;;;14.40;80.40;;;;;;5055325;28;20025;-47
2022/10/04 21:54:46;;;;;;;13.43;7.43;;;14.50;80.40;;;;;;5019699;28;20439;-45
2022/10/04 21:57:13;;;;;;;9.88;6.15;;;14.50;80.20;;;;;;5048339;28;20036;-48
2022/10/04 21:59:40;;;;;;;11.90;7.35;;;14.50;80.20;;;;;;5036575;28;20477;-45
2022/10/04 22:02:07;;;;;;;13.25;7.40;;;14.60;80.20;;;;;;5052679;28;20032;-49
2022/10/04 22:04:33;;;;;;;13.18;6.95;;;14.60;80.20;;;;;;5056477;28;20714;-46
2022/10/04 22:07:00;;;;;;;9.75;6.85;;;14.60;80.00;;;;;;5055998;28;20685;-48
2022/10/04 22:09:29;;;;;;;11.00;7.53;;;14.60;79.90;;;;;;5049620;28;20096;-47
2022/10/04 22:11:56;;;;;;;14.15;8.07;;;14.60;79.90;;;;;;5052184;28;20052;-48
2022/10/04 22:14:25;;;;;;;7.95;6.55;;;14.70;80.00;;;;;;5053910;28;20533;-47
2022/10/04 22:16:52;;;;;;;11.95;7.03;;;14.70;80.00;;;;;;5054524;28;20454;-46
2022/10/04 22:19:17;;;;;;;8.90;6.55;;;14.70;80.10;;;;;;5054691;28;20032;-48
2022/10/04 22:21:46;;;;;;;11.52;7.40;;;14.70;80.00;;;;;;5054991;28;20358;-49
2022/10/04 22:24:20;;;;;;;12.80;6.37;;;14.80;79.80;;;;;;5054916;28;20052;-49
2022/10/04 22:26:46;;;;;;;8.95;6.75;;;14.80;79.90;;;;;;5054463;28;20425;-47
2022/10/04 22:29:16;;;;;;;11.07;6.47;;;14.80;80.20;;;;;;5054278;28;20442;-46
2022/10/04 22:31:51;;;;;;;11.70;7.43;;;14.80;80.00;;;;;;5052033;28;20055;-45
2022/10/04 22:34:21;;;;;;;9.20;6.90;;;14.80;80.10;;;;;;5033057;28;20056;-48
2022/10/04 22:36:52;;;;;;;12.45;7.50;;;14.80;80.30;;;;;;5035289;28;20028;-49
2022/10/04 22:39:19;;;;;;;10.25;7.25;;;14.80;80.40;;;;;;5034169;28;20018;-48
2022/10/04 22:41:59;;;;;;;13.40;7.50;;;14.80;80.60;;;;;;5033670;28;20641;-45
2022/10/04 22:44:36;;;;;;;11.07;6.82;;;14.70;80.70;;;;;;5031501;28;20022;-48
2022/10/04 22:47:09;;;;;;;11.90;6.07;;;14.70;80.80;;;;;;5029061;28;20022;-48
2022/10/04 22:49:40;;;;;;;16.23;7.43;;;14.70;80.80;;;;;;5034433;28;20037;-49
2022/10/04 22:52:19;;;;;;;11.32;7.40;;;14.70;81.00;;;;;;5035314;28;20018;-47
2022/10/04 22:54:48;;;;;;;12.80;7.28;;;14.70;81.10;;;;;;5051070;28;20108;-48
2022/10/04 22:57:17;;;;;;;9.18;6.47;;;14.70;81.10;;;;;;5033528;28;20045;-46
2022/10/04 22:59:46;;;;;;;9.48;6.63;;;14.70;81.20;;;;;;5018439;28;20394;-45
2022/10/04 23:02:33;;;;;;;12.00;7.90;;;14.70;81.20;;;;;;5034167;28;20029;-46
2022/10/04 23:05:16;;;;;;;17.42;8.68;;;14.70;81.20;;;;;;5034947;28;20033;-46
2022/10/04 23:07:45;;;;;;;10.05;7.00;;;14.60;81.40;;;;;;5037947;28;20450;-46
2022/10/04 23:10:13;;;;;;;12.93;7.72;;;14.70;81.40;;;;;;5034291;28;20029;-46
2022/10/04 23:12:44;;;;;;;13.90;9.05;;;14.70;81.30;;;;;;5033788;28;20083;-47
2022/10/04 23:15:16;;;;;;;14.45;8.35;;;14.70;81.40;;;;;;5034223;28;20036;-47
2022/10/04 23:17:45;;;;;;;9.43;7.05;;;14.70;81.40;;;;;;5035112;28;20040;-45
2022/10/04 23:20:17;;;;;;;11.40;7.38;;;14.70;81.50;;;;;;5034966;28;20025;-44
2022/10/04 23:22:48;;;;;;;9.88;6.40;;;14.70;81.50;;;;;;5033235;28;20107;-45
2022/10/04 23:25:28;;;;;;;13.02;7.93;;;14.70;81.60;;;;;;5033949;28;20038;-45
2022/10/04 23:28:14;;;;;;;12.85;7.80;;;14.70;81.70;;;;;;5032676;28;20030;-46
2022/10/04 23:30:40;;;;;;;11.13;7.95;;;14.70;81.80;;;;;;5044498;28;20022;-47
2022/10/04 23:33:16;;;;;;;11.00;7.78;;;14.70;81.90;;;;;;5035214;28;20030;-45
2022/10/04 23:35:45;;;;;;;11.00;8.15;;;14.70;82.00;;;;;;5051532;28;20059;-46
2022/10/04 23:38:16;;;;;;;12.05;7.57;;;14.70;81.90;;;;;;5037772;28;20029;-45
2022/10/04 23:40:43;;;;;;;11.75;7.53;;;14.70;82.00;;;;;;5053384;28;20029;-45
2022/10/04 23:43:23;;;;;;;13.25;8.57;;;14.70;82.10;;;;;;5053110;28;20033;-46
2022/10/04 23:45:56;;;;;;;12.73;7.90;;;14.70;82.00;;;;;;5044024;28;20045;-45
2022/10/04 23:48:27;;;;;;;15.63;7.50;;;14.70;82.20;;;;;;5054287;28;20017;-45
2022/10/04 23:50:58;;;;;;;11.57;8.20;;;14.70;82.20;;;;;;5052984;28;20043;-46
2022/10/04 23:53:30;;;;;;;11.15;7.40;;;14.70;82.40;;;;;;5054287;28;20028;-46
2022/10/04 23:56:02;;;;;;;9.45;7.32;;;14.70;82.30;;;;;;5053610;28;20033;-48
2022/10/04 23:58:34;;;;;;;10.63;7.45;;;14.70;82.30;;;;;;5053046;28;20033;-45
